createdAt,value
2018-06-04T00:00:35.706Z,25.70
2018-06-04T00:01:39.223Z,25.70
2018-06-04T00:02:42.787Z,25.71
2018-06-04T00:03:46.327Z,25.70
2018-06-04T00:04:49.860Z,25.44
2018-06-04T00:05:53.414Z,25.70
2018-06-04T00:06:57.986Z,25.70
2018-06-04T00:08:01.574Z,25.70
2018-06-04T00:09:05.222Z,25.70
2018-06-04T00:10:08.832Z,25.70
2018-06-04T00:11:13.058Z,25.70
2018-06-04T00:12:16.601Z,25.69
2018-06-04T00:13:20.459Z,25.70
2018-06-04T00:14:24.006Z,25.69
2018-06-04T00:15:27.597Z,25.69
2018-06-04T00:16:31.129Z,25.70
2018-06-04T00:17:34.667Z,25.70
2018-06-04T00:18:38.221Z,25.70
2018-06-04T00:19:41.771Z,25.69
2018-06-04T00:20:45.321Z,25.69
2018-06-04T00:21:48.921Z,25.70
2018-06-04T00:22:52.472Z,25.69
2018-06-04T00:23:55.996Z,25.68
2018-06-04T00:24:59.863Z,25.69
2018-06-04T00:26:03.404Z,25.68
2018-06-04T00:27:06.966Z,25.69
2018-06-04T00:28:10.577Z,25.69
2018-06-04T00:29:14.145Z,25.70
2018-06-04T00:30:17.715Z,25.68
2018-06-04T00:31:21.539Z,25.68
2018-06-04T00:32:25.085Z,25.68
2018-06-04T00:33:28.631Z,25.69
2018-06-04T00:34:32.208Z,25.69
2018-06-04T00:35:35.750Z,25.68
2018-06-04T00:36:39.265Z,25.68
2018-06-04T00:37:43.164Z,25.68
2018-06-04T00:38:46.766Z,25.68
2018-06-04T00:39:50.375Z,25.67
2018-06-04T00:40:53.937Z,25.68
2018-06-04T00:41:57.489Z,25.68
2018-06-04T00:43:01.053Z,25.67
2018-06-04T00:44:05.002Z,25.68
2018-06-04T00:45:08.539Z,25.67
2018-06-04T00:46:12.083Z,25.66
2018-06-04T00:47:15.628Z,25.66
2018-06-04T00:48:19.394Z,25.68
2018-06-04T00:49:23.217Z,25.68
2018-06-04T00:50:26.755Z,25.67
2018-06-04T00:51:30.297Z,25.67
2018-06-04T00:52:33.828Z,25.67
2018-06-04T00:53:37.388Z,25.68
2018-06-04T00:54:40.971Z,25.67
2018-06-04T00:55:44.845Z,25.66
2018-06-04T00:56:48.366Z,25.66
2018-06-04T00:57:51.877Z,25.67
2018-06-04T00:58:55.422Z,25.67
2018-06-04T00:59:59.210Z,25.67
2018-06-04T01:01:02.843Z,25.67
2018-06-04T01:02:06.685Z,25.67
2018-06-04T01:03:10.227Z,25.66
2018-06-04T01:04:13.827Z,25.66
2018-06-04T01:05:17.383Z,25.68
2018-06-04T01:06:20.945Z,25.67
2018-06-04T01:07:24.490Z,25.43
2018-06-04T01:08:28.354Z,25.67
2018-06-04T01:09:31.895Z,25.67
2018-06-04T01:10:35.446Z,25.66
2018-06-04T01:11:39.023Z,25.64
2018-06-04T01:12:42.563Z,25.38
2018-06-04T01:13:46.385Z,25.65
2018-06-04T01:14:50.206Z,25.65
2018-06-04T01:15:53.762Z,25.65
2018-06-04T01:16:57.317Z,25.65
2018-06-04T01:18:00.870Z,25.66
2018-06-04T01:19:04.403Z,25.66
2018-06-04T01:20:07.926Z,25.65
2018-06-04T01:21:11.440Z,25.65
2018-06-04T01:22:14.983Z,25.41
2018-06-04T01:23:18.520Z,25.65
2018-06-04T01:24:22.031Z,25.65
2018-06-04T01:25:25.553Z,25.66
2018-06-04T01:26:29.121Z,25.65
2018-06-04T01:27:32.644Z,25.64
2018-06-04T01:28:36.202Z,25.64
2018-06-04T01:29:39.733Z,25.66
2018-06-04T01:30:43.252Z,25.65
2018-06-04T01:31:47.078Z,25.64
2018-06-04T01:32:50.609Z,25.64
2018-06-04T01:33:54.109Z,25.65
2018-06-04T01:34:57.657Z,25.64
2018-06-04T01:36:01.218Z,25.64
2018-06-04T01:37:04.751Z,25.63
2018-06-04T01:38:08.320Z,25.64
2018-06-04T01:39:11.866Z,25.63
2018-06-04T01:40:15.419Z,25.65
2018-06-04T01:41:18.966Z,25.65
2018-06-04T01:42:22.521Z,25.66
2018-06-04T01:43:26.374Z,25.64
2018-06-04T01:44:29.924Z,25.64
2018-06-04T01:45:33.703Z,25.64
2018-06-04T01:46:37.863Z,25.62
2018-06-04T01:47:41.385Z,25.64
2018-06-04T01:48:44.903Z,25.63
2018-06-04T01:49:48.701Z,25.63
2018-06-04T01:50:52.259Z,25.63
2018-06-04T01:51:55.832Z,25.62
2018-06-04T01:52:59.321Z,25.64
2018-06-04T01:54:02.836Z,25.64
2018-06-04T01:55:06.371Z,25.64
2018-06-04T01:56:10.177Z,25.63
2018-06-04T01:57:13.706Z,25.64
2018-06-04T01:58:17.727Z,25.63
2018-06-04T01:59:21.273Z,25.64
2018-06-04T02:00:24.809Z,25.63
2018-06-04T02:01:28.344Z,25.62
2018-06-04T02:02:32.180Z,25.63
2018-06-04T02:03:35.722Z,25.64
2018-06-04T02:04:39.254Z,25.63
2018-06-04T02:05:42.778Z,25.62
2018-06-04T02:06:46.294Z,25.62
2018-06-04T02:07:49.831Z,25.62
2018-06-04T02:08:53.660Z,25.62
2018-06-04T02:09:57.170Z,25.62
2018-06-04T02:11:00.711Z,25.63
2018-06-04T02:12:04.221Z,25.62
2018-06-04T02:13:07.783Z,25.60
2018-06-04T02:14:11.310Z,25.62
2018-06-04T02:15:15.125Z,25.61
2018-06-04T02:16:18.738Z,25.62
2018-06-04T02:17:22.269Z,25.62
2018-06-04T02:18:25.799Z,25.62
2018-06-04T02:19:29.314Z,25.61
2018-06-04T02:20:32.828Z,25.61
2018-06-04T02:21:36.703Z,25.61
2018-06-04T02:22:40.222Z,25.61
2018-06-04T02:23:44.006Z,25.60
2018-06-04T02:24:47.530Z,25.61
2018-06-04T02:25:51.097Z,25.60
2018-06-04T02:26:54.613Z,25.35
2018-06-04T02:27:58.397Z,25.61
2018-06-04T02:29:01.944Z,25.60
2018-06-04T02:30:05.470Z,25.60
2018-06-04T02:31:08.991Z,25.60
2018-06-04T02:32:12.476Z,25.60
2018-06-04T02:33:15.997Z,25.60
2018-06-04T02:34:19.789Z,25.60
2018-06-04T02:35:23.305Z,25.61
2018-06-04T02:36:27.119Z,25.60
2018-06-04T02:37:30.648Z,25.60
2018-06-04T02:38:34.164Z,25.59
2018-06-04T02:39:37.653Z,25.60
2018-06-04T02:40:41.441Z,25.60
2018-06-04T02:41:44.970Z,25.60
2018-06-04T02:42:49.434Z,25.59
2018-06-04T02:43:53.016Z,25.60
2018-06-04T02:44:56.620Z,25.60
2018-06-04T02:46:00.146Z,25.60
2018-06-04T02:47:04.301Z,25.61
2018-06-04T02:48:07.806Z,25.34
2018-06-04T02:49:11.304Z,25.61
2018-06-04T02:50:14.862Z,25.60
2018-06-04T02:51:18.420Z,25.60
2018-06-04T02:52:21.946Z,25.59
2018-06-04T02:53:25.759Z,25.59
2018-06-04T02:54:29.327Z,25.59
2018-06-04T02:55:32.860Z,25.59
2018-06-04T02:56:36.405Z,25.59
2018-06-04T02:57:39.933Z,25.59
2018-06-04T02:58:43.714Z,25.58
2018-06-04T02:59:47.755Z,25.58
2018-06-04T03:00:51.477Z,25.59
2018-06-04T03:01:55.071Z,25.59
2018-06-04T03:02:58.749Z,25.58
2018-06-04T03:04:02.393Z,25.58
2018-06-04T03:05:05.971Z,25.59
2018-06-04T03:06:09.812Z,25.59
2018-06-04T03:07:13.380Z,25.58
2018-06-04T03:08:16.965Z,25.57
2018-06-04T03:09:20.487Z,25.57
2018-06-04T03:10:24.035Z,25.58
2018-06-04T03:11:27.561Z,25.58
2018-06-04T03:12:31.410Z,25.59
2018-06-04T03:13:34.954Z,25.58
2018-06-04T03:14:38.501Z,25.57
2018-06-04T03:15:42.164Z,25.57
2018-06-04T03:16:47.556Z,25.58
2018-06-04T03:17:51.053Z,25.57
2018-06-04T03:18:55.871Z,25.57
2018-06-04T03:19:59.396Z,25.57
2018-06-04T03:21:02.936Z,25.58
2018-06-04T03:22:06.502Z,25.56
2018-06-04T03:23:10.070Z,25.58
2018-06-04T03:24:13.610Z,25.58
2018-06-04T03:25:17.154Z,25.57
2018-06-04T03:26:20.673Z,25.57
2018-06-04T03:27:24.161Z,25.57
2018-06-04T03:28:27.709Z,25.58
2018-06-04T03:29:31.283Z,25.57
2018-06-04T03:30:35.096Z,25.57
2018-06-04T03:31:38.613Z,25.57
2018-06-04T03:32:42.150Z,25.57
2018-06-04T03:33:45.678Z,25.56
2018-06-04T03:34:49.247Z,25.55
2018-06-04T03:35:52.845Z,25.56
2018-06-04T03:36:56.659Z,25.57
2018-06-04T03:38:00.205Z,25.55
2018-06-04T03:39:04.537Z,25.57
2018-06-04T03:40:08.078Z,25.56
2018-06-04T03:41:11.614Z,25.56
2018-06-04T03:42:15.137Z,25.57
2018-06-04T03:43:18.989Z,25.55
2018-06-04T03:44:22.541Z,25.55
2018-06-04T03:45:26.097Z,25.56
2018-06-04T03:46:29.632Z,25.32
2018-06-04T03:47:33.169Z,25.56
2018-06-04T03:48:36.671Z,25.56
2018-06-04T03:49:40.557Z,25.56
2018-06-04T03:50:44.077Z,25.56
2018-06-04T03:51:47.594Z,25.57
2018-06-04T03:52:51.140Z,25.33
2018-06-04T03:53:54.691Z,25.56
2018-06-04T03:54:58.229Z,25.56
2018-06-04T03:56:02.037Z,25.56
2018-06-04T03:57:05.590Z,25.56
2018-06-04T03:58:09.106Z,25.56
2018-06-04T03:59:12.700Z,25.55
2018-06-04T04:00:16.239Z,25.56
2018-06-04T04:01:19.772Z,25.55
2018-06-04T04:02:23.320Z,25.56
2018-06-04T04:03:26.861Z,25.56
2018-06-04T04:04:30.427Z,25.56
2018-06-04T04:05:33.990Z,25.55
2018-06-04T04:06:37.589Z,25.31
2018-06-04T04:07:41.405Z,25.55
2018-06-04T04:08:44.937Z,25.56
2018-06-04T04:09:48.470Z,25.55
2018-06-04T04:10:52.018Z,25.56
2018-06-04T04:11:55.546Z,25.57
2018-06-04T04:12:59.092Z,25.56
2018-06-04T04:14:02.658Z,25.56
2018-06-04T04:15:06.196Z,25.56
2018-06-04T04:16:09.723Z,25.55
2018-06-04T04:17:13.259Z,25.56
2018-06-04T04:18:16.769Z,25.57
2018-06-04T04:19:20.654Z,25.57
2018-06-04T04:20:24.154Z,25.56
2018-06-04T04:21:27.659Z,25.30
2018-06-04T04:22:31.165Z,25.56
2018-06-04T04:23:34.675Z,25.55
2018-06-04T04:24:38.282Z,25.56
2018-06-04T04:25:42.226Z,25.55
2018-06-04T04:26:45.779Z,25.55
2018-06-04T04:27:49.325Z,25.56
2018-06-04T04:28:52.865Z,25.57
2018-06-04T04:29:56.381Z,25.57
2018-06-04T04:30:59.906Z,25.56
2018-06-04T04:32:03.758Z,25.56
2018-06-04T04:33:07.245Z,25.56
2018-06-04T04:34:10.769Z,25.56
2018-06-04T04:35:14.290Z,25.56
2018-06-04T04:36:17.808Z,25.56
2018-06-04T04:37:21.418Z,25.56
2018-06-04T04:38:25.326Z,25.56
2018-06-04T04:39:28.912Z,25.55
2018-06-04T04:40:32.455Z,25.55
2018-06-04T04:41:35.977Z,25.56
2018-06-04T04:42:39.539Z,25.55
2018-06-04T04:43:43.053Z,25.55
2018-06-04T04:44:46.541Z,25.57
2018-06-04T04:45:50.094Z,25.56
2018-06-04T04:46:53.614Z,25.56
2018-06-04T04:47:57.124Z,25.56
2018-06-04T04:49:00.712Z,25.57
2018-06-04T04:50:04.260Z,25.57
2018-06-04T04:51:07.791Z,25.56
2018-06-04T04:52:11.310Z,25.56
2018-06-04T04:53:14.869Z,25.56
2018-06-04T04:54:18.450Z,25.55
2018-06-04T04:55:22.004Z,25.57
2018-06-04T04:56:26.109Z,25.56
2018-06-04T04:57:29.784Z,25.57
2018-06-04T04:58:33.360Z,25.56
2018-06-04T04:59:36.850Z,25.56
2018-06-04T05:00:40.452Z,25.56
2018-06-04T05:01:43.984Z,25.55
2018-06-04T05:02:48.000Z,25.55
2018-06-04T05:03:51.520Z,25.54
2018-06-04T05:04:55.041Z,25.56
2018-06-04T05:05:58.563Z,25.32
2018-06-04T05:07:02.092Z,25.57
2018-06-04T05:08:05.622Z,25.56
2018-06-04T05:09:09.662Z,25.57
2018-06-04T05:10:13.174Z,25.57
2018-06-04T05:11:16.715Z,25.57
2018-06-04T05:12:20.239Z,25.56
2018-06-04T05:13:23.798Z,25.57
2018-06-04T05:14:27.512Z,25.56
2018-06-04T05:15:31.394Z,25.56
2018-06-04T05:16:35.104Z,25.57
2018-06-04T05:17:38.675Z,25.57
2018-06-04T05:18:42.387Z,25.57
2018-06-04T05:19:45.918Z,25.56
2018-06-04T05:20:49.426Z,25.30
2018-06-04T05:21:53.506Z,25.57
2018-06-04T05:22:57.050Z,25.57
2018-06-04T05:24:00.578Z,25.57
2018-06-04T05:25:04.109Z,25.57
2018-06-04T05:26:07.692Z,25.56
2018-06-04T05:27:11.272Z,25.56
2018-06-04T05:28:15.245Z,25.57
2018-06-04T05:29:18.778Z,25.58
2018-06-04T05:30:22.318Z,25.57
2018-06-04T05:31:25.842Z,25.58
2018-06-04T05:32:29.388Z,25.58
2018-06-04T05:33:32.949Z,25.58
2018-06-04T05:34:36.747Z,25.59
2018-06-04T05:35:40.308Z,25.59
2018-06-04T05:36:43.882Z,25.58
2018-06-04T05:37:47.551Z,25.58
2018-06-04T05:38:51.079Z,25.58
2018-06-04T05:39:54.609Z,25.58
2018-06-04T05:40:58.480Z,25.59
2018-06-04T05:42:01.999Z,25.58
2018-06-04T05:43:05.538Z,25.58
2018-06-04T05:44:09.064Z,25.33
2018-06-04T05:45:12.594Z,25.59
2018-06-04T05:46:16.105Z,25.59
2018-06-04T05:47:19.906Z,25.60
2018-06-04T05:48:23.435Z,25.61
2018-06-04T05:49:26.976Z,25.60
2018-06-04T05:50:30.532Z,25.60
2018-06-04T05:51:34.055Z,25.59
2018-06-04T05:52:37.579Z,25.59
2018-06-04T05:53:41.445Z,25.33
2018-06-04T05:54:44.960Z,25.60
2018-06-04T05:55:48.468Z,25.62
2018-06-04T05:56:51.999Z,25.61
2018-06-04T05:57:56.149Z,25.59
2018-06-04T05:58:59.727Z,25.59
2018-06-04T06:00:03.608Z,25.60
2018-06-04T06:01:07.297Z,25.61
2018-06-04T06:02:10.825Z,25.34
2018-06-04T06:03:14.374Z,25.62
2018-06-04T06:04:18.018Z,25.63
2018-06-04T06:05:21.549Z,25.63
2018-06-04T06:06:25.468Z,25.63
2018-06-04T06:07:29.091Z,25.63
2018-06-04T06:08:32.679Z,25.63
2018-06-04T06:09:36.251Z,25.63
2018-06-04T06:10:39.821Z,25.64
2018-06-04T06:11:43.387Z,25.62
2018-06-04T06:12:46.970Z,25.63
2018-06-04T06:13:50.593Z,25.63
2018-06-04T06:14:54.133Z,25.64
2018-06-04T06:15:57.657Z,25.63
2018-06-04T06:17:01.194Z,25.55
2018-06-04T06:18:05.083Z,25.64
2018-06-04T06:19:08.587Z,25.64
2018-06-04T06:20:12.124Z,25.64
2018-06-04T06:21:15.672Z,25.66
2018-06-04T06:22:19.268Z,25.64
2018-06-04T06:23:22.811Z,25.64
2018-06-04T06:24:26.644Z,25.65
2018-06-04T06:25:30.137Z,25.65
2018-06-04T06:26:33.722Z,25.65
2018-06-04T06:27:37.250Z,25.65
2018-06-04T06:28:40.784Z,25.38
2018-06-04T06:29:44.333Z,25.66
2018-06-04T06:30:48.266Z,25.65
2018-06-04T06:31:51.779Z,25.66
2018-06-04T06:32:55.335Z,25.67
2018-06-04T06:33:58.899Z,25.65
2018-06-04T06:35:02.411Z,25.66
2018-06-04T06:36:06.063Z,25.66
2018-06-04T06:37:10.001Z,25.67
2018-06-04T06:38:13.550Z,25.67
2018-06-04T06:39:18.172Z,25.67
2018-06-04T06:40:21.745Z,25.67
2018-06-04T06:41:25.306Z,25.67
2018-06-04T06:42:28.872Z,25.68
2018-06-04T06:43:32.826Z,25.66
2018-06-04T06:44:36.362Z,25.68
2018-06-04T06:45:39.893Z,25.69
2018-06-04T06:46:44.157Z,25.69
2018-06-04T06:47:47.721Z,25.71
2018-06-04T06:48:51.264Z,25.70
2018-06-04T06:49:55.096Z,25.71
2018-06-04T06:50:58.617Z,25.72
2018-06-04T06:52:02.127Z,25.73
2018-06-04T06:53:05.677Z,25.75
2018-06-04T06:54:09.214Z,25.76
2018-06-04T06:55:12.737Z,25.76
2018-06-04T06:56:16.589Z,25.77
2018-06-04T06:57:20.173Z,25.78
2018-06-04T06:58:23.769Z,25.78
2018-06-04T06:59:27.393Z,25.79
2018-06-04T07:00:31.041Z,25.79
2018-06-04T07:01:34.578Z,25.79
2018-06-04T07:02:38.460Z,25.79
2018-06-04T07:03:42.041Z,25.81
2018-06-04T07:04:45.557Z,25.80
2018-06-04T07:05:49.074Z,25.83
2018-06-04T07:07:26.236Z,25.85
2018-06-04T08:31:57.651Z,25.49
2018-06-04T20:29:14.402Z,25.51
2018-06-04T20:30:18.137Z,25.57
2018-06-04T20:31:21.858Z,25.67
2018-06-04T20:32:25.531Z,25.79
2018-06-04T20:33:29.051Z,25.63
2018-06-04T20:34:36.825Z,25.70
2018-06-04T20:35:41.370Z,26.01
2018-06-04T20:36:46.088Z,26.05
2018-06-04T20:37:50.253Z,26.07
2018-06-04T20:38:53.801Z,26.10
2018-06-04T20:40:04.713Z,26.12
2018-06-04T20:41:08.612Z,26.14
2018-06-04T20:42:14.682Z,26.16
2018-06-04T20:43:18.216Z,26.17
2018-06-04T20:44:25.352Z,26.18
2018-06-04T20:45:30.264Z,26.18
2018-06-04T20:46:35.316Z,26.19
2018-06-04T20:47:39.849Z,26.20
2018-06-04T20:48:43.343Z,26.20
2018-06-04T20:49:50.674Z,26.22
2018-06-04T20:50:59.369Z,26.22
2018-06-04T20:52:03.104Z,26.23
2018-06-04T20:53:06.977Z,26.23
2018-06-04T20:54:10.518Z,26.24
2018-06-04T20:55:14.030Z,26.26
2018-06-04T20:56:17.674Z,26.25
2018-06-04T20:57:21.361Z,26.25
2018-06-04T20:58:26.114Z,26.24
2018-06-04T20:59:30.108Z,26.26
2018-06-04T21:00:35.444Z,26.26
2018-06-04T21:01:39.844Z,26.28
2018-06-04T21:02:43.381Z,26.27
2018-06-04T21:03:47.512Z,26.28
2018-06-04T21:04:51.032Z,26.28
2018-06-04T21:05:55.943Z,26.04
2018-06-04T21:06:59.955Z,26.04
2018-06-04T21:08:04.029Z,26.29
2018-06-04T21:09:07.513Z,26.29
2018-06-04T21:10:12.551Z,26.28
2018-06-04T21:11:19.018Z,26.29
2018-06-04T21:12:22.592Z,26.29
2018-06-04T21:13:26.836Z,26.29
2018-06-04T21:14:31.064Z,26.30
2018-06-04T21:15:34.646Z,26.31
2018-06-04T21:16:38.581Z,26.27
2018-06-04T21:17:43.378Z,26.31
2018-06-04T21:18:46.924Z,26.30
2018-06-04T21:19:50.485Z,26.32
2018-06-04T21:20:54.023Z,26.31
2018-06-04T21:21:58.196Z,26.32
2018-06-04T21:23:04.812Z,26.32
2018-06-04T21:24:09.149Z,26.33
2018-06-04T21:25:14.981Z,26.33
2018-06-04T21:26:22.444Z,26.33
2018-06-04T21:27:28.445Z,26.09
2018-06-04T21:28:33.480Z,26.34
2018-06-04T21:29:38.214Z,26.25
2018-06-04T21:30:44.993Z,26.34
2018-06-04T22:35:47.955Z,25.84
2018-06-04T22:36:51.605Z,25.91
2018-06-04T22:37:56.768Z,25.99
